sensor_id;sensor_type;location;lat;lon;timestamp;P1;durP1;ratioP1;P2;durP2;ratioP2
18505;SDS011;9382;53.242;10.438;2023-02-04T00:00:04;4.47;;;2.63;;
18505;SDS011;9382;53.242;10.438;2023-02-04T00:02:32;2.53;;;2.33;;
18505;SDS011;9382;53.242;10.438;2023-02-04T00:05:00;3.13;;;2.50;;
18505;SDS011;9382;53.242;10.438;2023-02-04T00:07:27;3.10;;;2.43;;
18505;SDS011;9382;53.242;10.438;2023-02-04T00:09:54;2.87;;;2.40;;
18505;SDS011;9382;53.242;10.438;2023-02-04T00:12:21;3.97;;;2.27;;
18505;SDS011;9382;53.242;10.438;2023-02-04T00:14:48;2.60;;;2.40;;
18505;SDS011;9382;53.242;10.438;2023-02-04T00:17:15;3.33;;;2.23;;
18505;SDS011;9382;53.242;10.438;2023-02-04T00:19:41;2.50;;;2.30;;
18505;SDS011;9382;53.242;10.438;2023-02-04T00:22:09;5.50;;;2.50;;
18505;SDS011;9382;53.242;10.438;2023-02-04T00:24:36;4.30;;;2.17;;
18505;SDS011;9382;53.242;10.438;2023-02-04T00:27:04;4.30;;;2.40;;
18505;SDS011;9382;53.242;10.438;2023-02-04T00:29:31;2.77;;;2.37;;
18505;SDS011;9382;53.242;10.438;2023-02-04T00:31:58;3.17;;;2.37;;
18505;SDS011;9382;53.242;10.438;2023-02-04T00:34:25;2.73;;;2.30;;
18505;SDS011;9382;53.242;10.438;2023-02-04T00:36:52;2.50;;;2.30;;
18505;SDS011;9382;53.242;10.438;2023-02-04T00:39:20;2.30;;;2.10;;
18505;SDS011;9382;53.242;10.438;2023-02-04T00:41:46;3.10;;;2.40;;
18505;SDS011;9382;53.242;10.438;2023-02-04T00:44:13;2.50;;;2.20;;
18505;SDS011;9382;53.242;10.438;2023-02-04T00:46:40;2.53;;;2.33;;
18505;SDS011;9382;53.242;10.438;2023-02-04T00:49:07;4.27;;;2.37;;
18505;SDS011;9382;53.242;10.438;2023-02-04T00:51:35;2.47;;;2.27;;
18505;SDS011;9382;53.242;10.438;2023-02-04T00:54:03;4.03;;;2.43;;
18505;SDS011;9382;53.242;10.438;2023-02-04T00:56:31;3.17;;;2.27;;
18505;SDS011;9382;53.242;10.438;2023-02-04T00:58:58;2.33;;;2.07;;
18505;SDS011;9382;53.242;10.438;2023-02-04T01:01:25;3.73;;;2.60;;
18505;SDS011;9382;53.242;10.438;2023-02-04T01:03:52;3.37;;;2.23;;
18505;SDS011;9382;53.242;10.438;2023-02-04T01:06:19;2.53;;;2.33;;
18505;SDS011;9382;53.242;10.438;2023-02-04T01:08:45;3.33;;;2.30;;
18505;SDS011;9382;53.242;10.438;2023-02-04T01:11:12;2.60;;;2.40;;
18505;SDS011;9382;53.242;10.438;2023-02-04T01:13:40;5.60;;;2.17;;
18505;SDS011;9382;53.242;10.438;2023-02-04T01:16:07;2.77;;;2.30;;
18505;SDS011;9382;53.242;10.438;2023-02-04T01:18:34;2.40;;;2.20;;
18505;SDS011;9382;53.242;10.438;2023-02-04T01:21:01;5.73;;;2.40;;
18505;SDS011;9382;53.242;10.438;2023-02-04T01:23:28;5.03;;;2.47;;
18505;SDS011;9382;53.242;10.438;2023-02-04T01:25:54;2.60;;;2.10;;
18505;SDS011;9382;53.242;10.438;2023-02-04T01:28:21;2.67;;;2.00;;
18505;SDS011;9382;53.242;10.438;2023-02-04T01:30:49;3.50;;;2.10;;
18505;SDS011;9382;53.242;10.438;2023-02-04T01:33:16;2.70;;;2.50;;
18505;SDS011;9382;53.242;10.438;2023-02-04T01:35:43;5.03;;;2.40;;
18505;SDS011;9382;53.242;10.438;2023-02-04T01:38:09;2.80;;;2.57;;
18505;SDS011;9382;53.242;10.438;2023-02-04T01:40:36;2.70;;;2.50;;
18505;SDS011;9382;53.242;10.438;2023-02-04T01:43:03;3.37;;;2.73;;
18505;SDS011;9382;53.242;10.438;2023-02-04T01:45:30;3.43;;;2.70;;
18505;SDS011;9382;53.242;10.438;2023-02-04T01:48:00;2.73;;;2.23;;
18505;SDS011;9382;53.242;10.438;2023-02-04T01:50:29;3.73;;;2.60;;
18505;SDS011;9382;53.242;10.438;2023-02-04T01:52:56;4.03;;;2.60;;
18505;SDS011;9382;53.242;10.438;2023-02-04T01:55:25;4.10;;;2.77;;
18505;SDS011;9382;53.242;10.438;2023-02-04T01:57:53;4.23;;;2.53;;
18505;SDS011;9382;53.242;10.438;2023-02-04T02:00:23;3.93;;;2.43;;
18505;SDS011;9382;53.242;10.438;2023-02-04T02:02:51;4.27;;;2.67;;
18505;SDS011;9382;53.242;10.438;2023-02-04T02:05:21;3.90;;;2.50;;
18505;SDS011;9382;53.242;10.438;2023-02-04T02:07:50;2.73;;;2.53;;
18505;SDS011;9382;53.242;10.438;2023-02-04T02:10:20;4.10;;;2.47;;
18505;SDS011;9382;53.242;10.438;2023-02-04T02:12:47;3.07;;;2.40;;
18505;SDS011;9382;53.242;10.438;2023-02-04T02:15:15;3.50;;;2.63;;
18505;SDS011;9382;53.242;10.438;2023-02-04T02:17:42;5.33;;;2.50;;
18505;SDS011;9382;53.242;10.438;2023-02-04T02:20:11;2.73;;;2.53;;
18505;SDS011;9382;53.242;10.438;2023-02-04T02:22:42;3.63;;;2.60;;
18505;SDS011;9382;53.242;10.438;2023-02-04T02:25:18;2.73;;;2.53;;
18505;SDS011;9382;53.242;10.438;2023-02-04T02:27:45;5.03;;;2.63;;
18505;SDS011;9382;53.242;10.438;2023-02-04T02:30:12;2.73;;;2.53;;
18505;SDS011;9382;53.242;10.438;2023-02-04T02:32:41;2.60;;;2.30;;
18505;SDS011;9382;53.242;10.438;2023-02-04T02:35:09;3.27;;;2.53;;
18505;SDS011;9382;53.242;10.438;2023-02-04T02:37:36;2.83;;;2.63;;
18505;SDS011;9382;53.242;10.438;2023-02-04T02:40:03;3.27;;;2.60;;
18505;SDS011;9382;53.242;10.438;2023-02-04T02:42:33;3.80;;;2.40;;
18505;SDS011;9382;53.242;10.438;2023-02-04T02:45:00;3.80;;;2.60;;
18505;SDS011;9382;53.242;10.438;2023-02-04T02:47:28;3.23;;;2.33;;
18505;SDS011;9382;53.242;10.438;2023-02-04T02:49:55;2.90;;;2.60;;
18505;SDS011;9382;53.242;10.438;2023-02-04T02:52:22;2.73;;;2.37;;
18505;SDS011;9382;53.242;10.438;2023-02-04T02:54:49;2.40;;;2.20;;
18505;SDS011;9382;53.242;10.438;2023-02-04T02:57:16;2.47;;;2.37;;
18505;SDS011;9382;53.242;10.438;2023-02-04T02:59:47;2.57;;;2.37;;
18505;SDS011;9382;53.242;10.438;2023-02-04T03:02:15;3.87;;;2.63;;
18505;SDS011;9382;53.242;10.438;2023-02-04T03:04:46;5.47;;;2.50;;
18505;SDS011;9382;53.242;10.438;2023-02-04T03:07:16;4.50;;;2.37;;
18505;SDS011;9382;53.242;10.438;2023-02-04T03:09:44;2.40;;;2.20;;
18505;SDS011;9382;53.242;10.438;2023-02-04T03:12:11;3.03;;;2.53;;
18505;SDS011;9382;53.242;10.438;2023-02-04T03:14:38;3.37;;;2.40;;
18505;SDS011;9382;53.242;10.438;2023-02-04T03:17:06;2.60;;;2.40;;
18505;SDS011;9382;53.242;10.438;2023-02-04T03:19:36;2.93;;;2.50;;
18505;SDS011;9382;53.242;10.438;2023-02-04T03:22:04;3.13;;;2.83;;
18505;SDS011;9382;53.242;10.438;2023-02-04T03:24:31;3.97;;;2.87;;
18505;SDS011;9382;53.242;10.438;2023-02-04T03:26:58;3.40;;;2.90;;
18505;SDS011;9382;53.242;10.438;2023-02-04T03:29:25;4.33;;;2.60;;
18505;SDS011;9382;53.242;10.438;2023-02-04T03:31:52;4.43;;;2.90;;
18505;SDS011;9382;53.242;10.438;2023-02-04T03:34:20;3.23;;;2.90;;
18505;SDS011;9382;53.242;10.438;2023-02-04T03:36:47;4.37;;;2.90;;
18505;SDS011;9382;53.242;10.438;2023-02-04T03:39:14;4.23;;;3.10;;
18505;SDS011;9382;53.242;10.438;2023-02-04T03:41:40;5.53;;;3.20;;
18505;SDS011;9382;53.242;10.438;2023-02-04T03:44:07;4.63;;;3.23;;
18505;SDS011;9382;53.242;10.438;2023-02-04T03:46:34;3.67;;;3.10;;
18505;SDS011;9382;53.242;10.438;2023-02-04T03:49:01;4.50;;;3.43;;
18505;SDS011;9382;53.242;10.438;2023-02-04T03:51:29;3.77;;;3.30;;
18505;SDS011;9382;53.242;10.438;2023-02-04T03:53:55;4.33;;;3.13;;
18505;SDS011;9382;53.242;10.438;2023-02-04T03:56:22;4.80;;;3.37;;
18505;SDS011;9382;53.242;10.438;2023-02-04T03:58:49;4.93;;;3.67;;
18505;SDS011;9382;53.242;10.438;2023-02-04T04:01:16;4.60;;;3.10;;
18505;SDS011;9382;53.242;10.438;2023-02-04T04:03:42;4.63;;;3.30;;
18505;SDS011;9382;53.242;10.438;2023-02-04T04:06:09;3.50;;;3.10;;
18505;SDS011;9382;53.242;10.438;2023-02-04T04:08:37;4.30;;;3.07;;
18505;SDS011;9382;53.242;10.438;2023-02-04T04:11:04;3.77;;;3.30;;
18505;SDS011;9382;53.242;10.438;2023-02-04T04:13:31;3.63;;;3.13;;
18505;SDS011;9382;53.242;10.438;2023-02-04T04:15:58;4.00;;;3.10;;
18505;SDS011;9382;53.242;10.438;2023-02-04T04:18:24;5.80;;;3.20;;
18505;SDS011;9382;53.242;10.438;2023-02-04T04:20:51;4.57;;;3.47;;
18505;SDS011;9382;53.242;10.438;2023-02-04T04:23:18;6.03;;;3.57;;
18505;SDS011;9382;53.242;10.438;2023-02-04T04:25:46;4.73;;;3.53;;
18505;SDS011;9382;53.242;10.438;2023-02-04T04:28:13;4.20;;;3.60;;
18505;SDS011;9382;53.242;10.438;2023-02-04T04:30:39;6.53;;;3.40;;
18505;SDS011;9382;53.242;10.438;2023-02-04T04:33:06;5.17;;;3.57;;
18505;SDS011;9382;53.242;10.438;2023-02-04T04:35:33;5.80;;;3.60;;
18505;SDS011;9382;53.242;10.438;2023-02-04T04:38:00;4.47;;;3.30;;
18505;SDS011;9382;53.242;10.438;2023-02-04T04:40:27;3.50;;;3.20;;
18505;SDS011;9382;53.242;10.438;2023-02-04T04:42:55;5.73;;;3.87;;
18505;SDS011;9382;53.242;10.438;2023-02-04T04:45:22;4.50;;;3.50;;
18505;SDS011;9382;53.242;10.438;2023-02-04T04:47:48;6.60;;;3.63;;
18505;SDS011;9382;53.242;10.438;2023-02-04T04:50:15;3.93;;;3.57;;
18505;SDS011;9382;53.242;10.438;2023-02-04T04:52:42;6.27;;;3.73;;
18505;SDS011;9382;53.242;10.438;2023-02-04T04:55:09;4.27;;;3.60;;
18505;SDS011;9382;53.242;10.438;2023-02-04T04:57:36;5.37;;;3.70;;
18505;SDS011;9382;53.242;10.438;2023-02-04T05:00:05;3.83;;;3.43;;
18505;SDS011;9382;53.242;10.438;2023-02-04T05:02:33;4.13;;;3.70;;
18505;SDS011;9382;53.242;10.438;2023-02-04T05:05:00;3.90;;;3.50;;
18505;SDS011;9382;53.242;10.438;2023-02-04T05:07:26;6.73;;;3.93;;
18505;SDS011;9382;53.242;10.438;2023-02-04T05:09:53;5.93;;;3.87;;
18505;SDS011;9382;53.242;10.438;2023-02-04T05:12:20;3.93;;;3.50;;
18505;SDS011;9382;53.242;10.438;2023-02-04T05:14:46;6.33;;;4.10;;
18505;SDS011;9382;53.242;10.438;2023-02-04T05:17:14;4.47;;;3.60;;
18505;SDS011;9382;53.242;10.438;2023-02-04T05:19:41;4.80;;;3.70;;
18505;SDS011;9382;53.242;10.438;2023-02-04T05:22:08;4.80;;;3.60;;
18505;SDS011;9382;53.242;10.438;2023-02-04T05:24:35;4.37;;;3.40;;
18505;SDS011;9382;53.242;10.438;2023-02-04T05:27:01;3.90;;;3.33;;
18505;SDS011;9382;53.242;10.438;2023-02-04T05:29:28;6.93;;;3.70;;
18505;SDS011;9382;53.242;10.438;2023-02-04T05:31:55;3.80;;;3.40;;
18505;SDS011;9382;53.242;10.438;2023-02-04T05:34:23;4.80;;;3.60;;
18505;SDS011;9382;53.242;10.438;2023-02-04T05:36:50;4.07;;;3.50;;
18505;SDS011;9382;53.242;10.438;2023-02-04T05:39:17;3.97;;;3.57;;
18505;SDS011;9382;53.242;10.438;2023-02-04T05:41:43;3.83;;;3.50;;
18505;SDS011;9382;53.242;10.438;2023-02-04T05:44:10;4.60;;;3.50;;
18505;SDS011;9382;53.242;10.438;2023-02-04T05:46:37;8.37;;;3.87;;
18505;SDS011;9382;53.242;10.438;2023-02-04T05:49:03;3.80;;;3.50;;
18505;SDS011;9382;53.242;10.438;2023-02-04T05:51:33;4.23;;;3.50;;
18505;SDS011;9382;53.242;10.438;2023-02-04T05:54:00;3.83;;;3.53;;
18505;SDS011;9382;53.242;10.438;2023-02-04T05:56:27;5.47;;;3.67;;
18505;SDS011;9382;53.242;10.438;2023-02-04T05:58:54;3.80;;;3.40;;
18505;SDS011;9382;53.242;10.438;2023-02-04T06:01:20;3.93;;;3.57;;
18505;SDS011;9382;53.242;10.438;2023-02-04T06:03:48;6.07;;;3.50;;
18505;SDS011;9382;53.242;10.438;2023-02-04T06:06:15;5.17;;;3.80;;
18505;SDS011;9382;53.242;10.438;2023-02-04T06:08:43;6.17;;;3.80;;
18505;SDS011;9382;53.242;10.438;2023-02-04T06:11:11;5.33;;;3.97;;
18505;SDS011;9382;53.242;10.438;2023-02-04T06:13:38;7.43;;;3.50;;
18505;SDS011;9382;53.242;10.438;2023-02-04T06:16:05;5.57;;;3.53;;
18505;SDS011;9382;53.242;10.438;2023-02-04T06:18:32;3.70;;;3.40;;
18505;SDS011;9382;53.242;10.438;2023-02-04T06:20:59;4.03;;;3.63;;
18505;SDS011;9382;53.242;10.438;2023-02-04T06:23:28;3.80;;;3.27;;
18505;SDS011;9382;53.242;10.438;2023-02-04T06:25:56;3.60;;;3.30;;
18505;SDS011;9382;53.242;10.438;2023-02-04T06:28:23;5.10;;;3.10;;
18505;SDS011;9382;53.242;10.438;2023-02-04T06:30:50;4.80;;;3.70;;
18505;SDS011;9382;53.242;10.438;2023-02-04T06:33:17;5.47;;;3.57;;
18505;SDS011;9382;53.242;10.438;2023-02-04T06:35:45;3.90;;;3.50;;
18505;SDS011;9382;53.242;10.438;2023-02-04T06:38:12;4.27;;;3.60;;
18505;SDS011;9382;53.242;10.438;2023-02-04T06:40:39;5.50;;;3.70;;
18505;SDS011;9382;53.242;10.438;2023-02-04T06:43:07;4.20;;;3.47;;
18505;SDS011;9382;53.242;10.438;2023-02-04T06:45:34;4.73;;;3.83;;
18505;SDS011;9382;53.242;10.438;2023-02-04T06:48:00;6.73;;;3.80;;
18505;SDS011;9382;53.242;10.438;2023-02-04T06:50:27;5.60;;;3.90;;
18505;SDS011;9382;53.242;10.438;2023-02-04T06:52:54;4.63;;;4.10;;
18505;SDS011;9382;53.242;10.438;2023-02-04T06:55:20;4.67;;;3.60;;
18505;SDS011;9382;53.242;10.438;2023-02-04T06:57:47;4.13;;;3.60;;
18505;SDS011;9382;53.242;10.438;2023-02-04T07:00:15;4.37;;;3.70;;
18505;SDS011;9382;53.242;10.438;2023-02-04T07:02:42;6.17;;;3.67;;
18505;SDS011;9382;53.242;10.438;2023-02-04T07:05:10;4.33;;;3.80;;
18505;SDS011;9382;53.242;10.438;2023-02-04T07:07:37;4.33;;;3.80;;
18505;SDS011;9382;53.242;10.438;2023-02-04T07:10:04;5.93;;;4.10;;
18505;SDS011;9382;53.242;10.438;2023-02-04T07:12:31;5.90;;;3.97;;
18505;SDS011;9382;53.242;10.438;2023-02-04T07:14:58;6.57;;;3.97;;
18505;SDS011;9382;53.242;10.438;2023-02-04T07:17:26;7.43;;;4.30;;
18505;SDS011;9382;53.242;10.438;2023-02-04T07:19:52;5.60;;;4.27;;
18505;SDS011;9382;53.242;10.438;2023-02-04T07:22:19;5.03;;;4.30;;
18505;SDS011;9382;53.242;10.438;2023-02-04T07:24:46;5.17;;;4.10;;
18505;SDS011;9382;53.242;10.438;2023-02-04T07:27:12;5.60;;;4.17;;
18505;SDS011;9382;53.242;10.438;2023-02-04T07:29:39;6.47;;;4.33;;
18505;SDS011;9382;53.242;10.438;2023-02-04T07:32:06;6.67;;;4.60;;
18505;SDS011;9382;53.242;10.438;2023-02-04T07:34:34;8.63;;;4.97;;
18505;SDS011;9382;53.242;10.438;2023-02-04T07:37:01;10.83;;;5.60;;
18505;SDS011;9382;53.242;10.438;2023-02-04T07:39:27;6.83;;;5.00;;
18505;SDS011;9382;53.242;10.438;2023-02-04T07:41:54;6.53;;;4.93;;
18505;SDS011;9382;53.242;10.438;2023-02-04T07:44:21;6.70;;;4.70;;
18505;SDS011;9382;53.242;10.438;2023-02-04T07:46:48;9.97;;;4.80;;
18505;SDS011;9382;53.242;10.438;2023-02-04T07:49:15;6.57;;;4.67;;
18505;SDS011;9382;53.242;10.438;2023-02-04T07:51:43;6.93;;;4.60;;
18505;SDS011;9382;53.242;10.438;2023-02-04T07:54:09;7.57;;;5.60;;
18505;SDS011;9382;53.242;10.438;2023-02-04T07:56:36;9.23;;;6.00;;
18505;SDS011;9382;53.242;10.438;2023-02-04T07:59:03;8.90;;;6.27;;
18505;SDS011;9382;53.242;10.438;2023-02-04T08:01:30;11.80;;;6.93;;
18505;SDS011;9382;53.242;10.438;2023-02-04T08:03:56;12.13;;;6.97;;
18505;SDS011;9382;53.242;10.438;2023-02-04T08:06:23;11.03;;;7.47;;
18505;SDS011;9382;53.242;10.438;2023-02-04T08:08:51;10.17;;;6.70;;
18505;SDS011;9382;53.242;10.438;2023-02-04T08:11:18;8.10;;;6.57;;
18505;SDS011;9382;53.242;10.438;2023-02-04T08:13:45;8.83;;;6.17;;
18505;SDS011;9382;53.242;10.438;2023-02-04T08:16:11;10.03;;;7.30;;
18505;SDS011;9382;53.242;10.438;2023-02-04T08:18:38;9.70;;;6.77;;
18505;SDS011;9382;53.242;10.438;2023-02-04T08:21:05;9.97;;;7.37;;
18505;SDS011;9382;53.242;10.438;2023-02-04T08:23:32;8.57;;;6.57;;
18505;SDS011;9382;53.242;10.438;2023-02-04T08:26:00;9.83;;;6.73;;
18505;SDS011;9382;53.242;10.438;2023-02-04T08:28:27;10.27;;;6.80;;
18505;SDS011;9382;53.242;10.438;2023-02-04T08:30:53;10.03;;;6.80;;
18505;SDS011;9382;53.242;10.438;2023-02-04T08:33:20;9.80;;;6.43;;
18505;SDS011;9382;53.242;10.438;2023-02-04T08:35:47;8.80;;;7.00;;
18505;SDS011;9382;53.242;10.438;2023-02-04T08:38:14;10.77;;;7.13;;
18505;SDS011;9382;53.242;10.438;2023-02-04T08:40:41;9.83;;;6.63;;
18505;SDS011;9382;53.242;10.438;2023-02-04T08:43:09;9.20;;;6.17;;
18505;SDS011;9382;53.242;10.438;2023-02-04T08:45:36;7.53;;;5.67;;
18505;SDS011;9382;53.242;10.438;2023-02-04T08:48:03;7.13;;;5.00;;
18505;SDS011;9382;53.242;10.438;2023-02-04T08:50:30;5.83;;;5.03;;
18505;SDS011;9382;53.242;10.438;2023-02-04T08:52:57;5.57;;;4.73;;
18505;SDS011;9382;53.242;10.438;2023-02-04T08:55:24;8.17;;;4.60;;
18505;SDS011;9382;53.242;10.438;2023-02-04T08:57:50;6.17;;;4.10;;
18505;SDS011;9382;53.242;10.438;2023-02-04T09:00:18;6.03;;;3.50;;
18505;SDS011;9382;53.242;10.438;2023-02-04T09:02:45;4.90;;;3.80;;
18505;SDS011;9382;53.242;10.438;2023-02-04T09:05:12;4.03;;;3.60;;
18505;SDS011;9382;53.242;10.438;2023-02-04T09:07:39;5.60;;;3.43;;
18505;SDS011;9382;53.242;10.438;2023-02-04T09:10:06;6.07;;;3.40;;
18505;SDS011;9382;53.242;10.438;2023-02-04T09:12:33;4.03;;;3.10;;
18505;SDS011;9382;53.242;10.438;2023-02-04T09:15:00;4.80;;;3.30;;
18505;SDS011;9382;53.242;10.438;2023-02-04T09:17:28;4.63;;;3.30;;
18505;SDS011;9382;53.242;10.438;2023-02-04T09:19:54;6.17;;;3.07;;
18505;SDS011;9382;53.242;10.438;2023-02-04T09:22:21;4.30;;;3.00;;
18505;SDS011;9382;53.242;10.438;2023-02-04T09:24:48;5.27;;;3.07;;
18505;SDS011;9382;53.242;10.438;2023-02-04T09:27:14;5.03;;;2.90;;
18505;SDS011;9382;53.242;10.438;2023-02-04T09:29:41;3.33;;;2.70;;
18505;SDS011;9382;53.242;10.438;2023-02-04T09:32:08;3.87;;;2.80;;
18505;SDS011;9382;53.242;10.438;2023-02-04T09:34:36;4.67;;;2.83;;
18505;SDS011;9382;53.242;10.438;2023-02-04T09:37:03;3.37;;;2.93;;
18505;SDS011;9382;53.242;10.438;2023-02-04T09:39:29;4.47;;;3.07;;
18505;SDS011;9382;53.242;10.438;2023-02-04T09:41:57;4.90;;;3.50;;
18505;SDS011;9382;53.242;10.438;2023-02-04T09:44:24;5.97;;;3.27;;
18505;SDS011;9382;53.242;10.438;2023-02-04T09:46:53;6.63;;;3.23;;
18505;SDS011;9382;53.242;10.438;2023-02-04T09:49:21;3.93;;;2.90;;
18505;SDS011;9382;53.242;10.438;2023-02-04T09:51:50;6.77;;;3.33;;
18505;SDS011;9382;53.242;10.438;2023-02-04T09:54:18;4.07;;;3.07;;
18505;SDS011;9382;53.242;10.438;2023-02-04T09:56:47;4.63;;;2.70;;
18505;SDS011;9382;53.242;10.438;2023-02-04T09:59:15;4.27;;;2.70;;
18505;SDS011;9382;53.242;10.438;2023-02-04T10:01:44;3.00;;;2.70;;
18505;SDS011;9382;53.242;10.438;2023-02-04T10:04:12;5.50;;;2.80;;
18505;SDS011;9382;53.242;10.438;2023-02-04T10:06:40;8.70;;;4.90;;
18505;SDS011;9382;53.242;10.438;2023-02-04T10:09:09;6.70;;;2.83;;
18505;SDS011;9382;53.242;10.438;2023-02-04T10:11:37;8.03;;;4.97;;
18505;SDS011;9382;53.242;10.438;2023-02-04T10:14:07;3.57;;;3.00;;
18505;SDS011;9382;53.242;10.438;2023-02-04T10:16:38;6.67;;;3.80;;
18505;SDS011;9382;53.242;10.438;2023-02-04T10:19:10;32.77;;;13.77;;
18505;SDS011;9382;53.242;10.438;2023-02-04T10:21:39;20.90;;;10.13;;
18505;SDS011;9382;53.242;10.438;2023-02-04T10:24:10;3.13;;;2.40;;
18505;SDS011;9382;53.242;10.438;2023-02-04T10:26:40;4.07;;;2.77;;
18505;SDS011;9382;53.242;10.438;2023-02-04T10:29:11;3.13;;;2.30;;
18505;SDS011;9382;53.242;10.438;2023-02-04T10:31:39;2.53;;;2.20;;
18505;SDS011;9382;53.242;10.438;2023-02-04T10:34:11;2.53;;;2.33;;
18505;SDS011;9382;53.242;10.438;2023-02-04T10:36:40;3.00;;;2.50;;
18505;SDS011;9382;53.242;10.438;2023-02-04T10:39:11;4.73;;;2.20;;
18505;SDS011;9382;53.242;10.438;2023-02-04T10:41:43;2.73;;;2.30;;
18505;SDS011;9382;53.242;10.438;2023-02-04T10:44:13;3.03;;;2.37;;
18505;SDS011;9382;53.242;10.438;2023-02-04T10:46:41;3.07;;;2.70;;
18505;SDS011;9382;53.242;10.438;2023-02-04T10:49:15;3.97;;;2.40;;
18505;SDS011;9382;53.242;10.438;2023-02-04T10:51:44;4.27;;;1.90;;
18505;SDS011;9382;53.242;10.438;2023-02-04T10:54:13;3.43;;;2.20;;
18505;SDS011;9382;53.242;10.438;2023-02-04T10:56:55;2.27;;;2.07;;
18505;SDS011;9382;53.242;10.438;2023-02-04T10:59:24;5.13;;;2.20;;
18505;SDS011;9382;53.242;10.438;2023-02-04T11:01:53;2.73;;;2.00;;
18505;SDS011;9382;53.242;10.438;2023-02-04T11:04:21;2.87;;;2.00;;
18505;SDS011;9382;53.242;10.438;2023-02-04T11:06:48;5.03;;;2.10;;
18505;SDS011;9382;53.242;10.438;2023-02-04T11:09:18;2.27;;;2.07;;
18505;SDS011;9382;53.242;10.438;2023-02-04T11:11:45;3.87;;;2.10;;
18505;SDS011;9382;53.242;10.438;2023-02-04T11:14:26;2.50;;;2.20;;
18505;SDS011;9382;53.242;10.438;2023-02-04T11:16:55;3.37;;;2.23;;
18505;SDS011;9382;53.242;10.438;2023-02-04T11:19:32;2.43;;;2.07;;
18505;SDS011;9382;53.242;10.438;2023-02-04T11:22:05;3.80;;;2.20;;
18505;SDS011;9382;53.242;10.438;2023-02-04T11:24:35;3.43;;;1.83;;
18505;SDS011;9382;53.242;10.438;2023-02-04T11:27:06;3.67;;;2.40;;
18505;SDS011;9382;53.242;10.438;2023-02-04T11:29:43;2.17;;;2.00;;
18505;SDS011;9382;53.242;10.438;2023-02-04T11:32:25;2.17;;;1.97;;
18505;SDS011;9382;53.242;10.438;2023-02-04T11:35:05;2.90;;;1.90;;
18505;SDS011;9382;53.242;10.438;2023-02-04T11:37:34;3.03;;;1.80;;
18505;SDS011;9382;53.242;10.438;2023-02-04T11:40:11;2.40;;;1.70;;
18505;SDS011;9382;53.242;10.438;2023-02-04T11:42:47;4.00;;;1.70;;
18505;SDS011;9382;53.242;10.438;2023-02-04T11:45:15;2.73;;;1.80;;
18505;SDS011;9382;53.242;10.438;2023-02-04T11:47:45;3.63;;;1.73;;
18505;SDS011;9382;53.242;10.438;2023-02-04T11:50:15;3.70;;;1.50;;
18505;SDS011;9382;53.242;10.438;2023-02-04T11:52:46;1.73;;;1.40;;
18505;SDS011;9382;53.242;10.438;2023-02-04T11:55:14;1.43;;;1.20;;
18505;SDS011;9382;53.242;10.438;2023-02-04T11:57:42;1.10;;;1.10;;
18505;SDS011;9382;53.242;10.438;2023-02-04T12:00:12;1.63;;;1.00;;
18505;SDS011;9382;53.242;10.438;2023-02-04T12:02:43;1.37;;;1.10;;
18505;SDS011;9382;53.242;10.438;2023-02-04T12:05:12;1.70;;;1.10;;
18505;SDS011;9382;53.242;10.438;2023-02-04T12:07:40;1.03;;;1.03;;
18505;SDS011;9382;53.242;10.438;2023-02-04T12:10:13;1.97;;;1.10;;
18505;SDS011;9382;53.242;10.438;2023-02-04T12:12:49;1.50;;;1.30;;
18505;SDS011;9382;53.242;10.438;2023-02-04T12:15:20;2.27;;;1.73;;
18505;SDS011;9382;53.242;10.438;2023-02-04T12:17:58;1.73;;;1.63;;
18505;SDS011;9382;53.242;10.438;2023-02-04T12:20:26;2.10;;;1.90;;
18505;SDS011;9382;53.242;10.438;2023-02-04T12:22:53;2.10;;;1.80;;
18505;SDS011;9382;53.242;10.438;2023-02-04T12:25:21;2.60;;;1.70;;
18505;SDS011;9382;53.242;10.438;2023-02-04T12:27:47;4.20;;;1.30;;
18505;SDS011;9382;53.242;10.438;2023-02-04T12:30:15;3.13;;;1.50;;
18505;SDS011;9382;53.242;10.438;2023-02-04T12:32:42;1.60;;;1.50;;
18505;SDS011;9382;53.242;10.438;2023-02-04T12:35:09;1.90;;;1.80;;
18505;SDS011;9382;53.242;10.438;2023-02-04T12:37:36;3.00;;;2.07;;
18505;SDS011;9382;53.242;10.438;2023-02-04T12:40:03;1.80;;;1.70;;
18505;SDS011;9382;53.242;10.438;2023-02-04T12:42:31;2.53;;;1.60;;
18505;SDS011;9382;53.242;10.438;2023-02-04T12:44:58;2.30;;;1.70;;
18505;SDS011;9382;53.242;10.438;2023-02-04T12:47:25;2.70;;;1.73;;
18505;SDS011;9382;53.242;10.438;2023-02-04T12:49:52;2.07;;;1.67;;
18505;SDS011;9382;53.242;10.438;2023-02-04T12:52:18;2.40;;;2.20;;
18505;SDS011;9382;53.242;10.438;2023-02-04T12:54:45;2.60;;;1.57;;
18505;SDS011;9382;53.242;10.438;2023-02-04T12:57:12;1.83;;;1.47;;
18505;SDS011;9382;53.242;10.438;2023-02-04T12:59:45;2.13;;;1.90;;
18505;SDS011;9382;53.242;10.438;2023-02-04T13:02:12;3.23;;;1.90;;
18505;SDS011;9382;53.242;10.438;2023-02-04T13:04:39;3.77;;;2.10;;
18505;SDS011;9382;53.242;10.438;2023-02-04T13:07:06;2.80;;;1.93;;
18505;SDS011;9382;53.242;10.438;2023-02-04T13:09:33;4.00;;;1.80;;
18505;SDS011;9382;53.242;10.438;2023-02-04T13:12:00;4.23;;;2.53;;
18505;SDS011;9382;53.242;10.438;2023-02-04T13:14:27;1.73;;;1.50;;
18505;SDS011;9382;53.242;10.438;2023-02-04T13:16:55;3.47;;;1.63;;
18505;SDS011;9382;53.242;10.438;2023-02-04T13:19:22;3.10;;;1.50;;
18505;SDS011;9382;53.242;10.438;2023-02-04T13:21:49;2.07;;;1.50;;
18505;SDS011;9382;53.242;10.438;2023-02-04T13:24:16;1.63;;;1.53;;
18505;SDS011;9382;53.242;10.438;2023-02-04T13:26:42;2.63;;;1.50;;
18505;SDS011;9382;53.242;10.438;2023-02-04T13:29:09;1.47;;;1.30;;
18505;SDS011;9382;53.242;10.438;2023-02-04T13:31:37;1.77;;;1.30;;
18505;SDS011;9382;53.242;10.438;2023-02-04T13:34:05;2.30;;;1.40;;
18505;SDS011;9382;53.242;10.438;2023-02-04T13:36:31;1.43;;;1.33;;
18505;SDS011;9382;53.242;10.438;2023-02-04T13:38:58;1.70;;;1.60;;
18505;SDS011;9382;53.242;10.438;2023-02-04T13:41:25;1.80;;;1.70;;
18505;SDS011;9382;53.242;10.438;2023-02-04T13:43:52;2.87;;;1.60;;
18505;SDS011;9382;53.242;10.438;2023-02-04T13:46:19;3.40;;;1.47;;
18505;SDS011;9382;53.242;10.438;2023-02-04T13:48:47;1.20;;;1.10;;
18505;SDS011;9382;53.242;10.438;2023-02-04T13:51:16;1.67;;;1.57;;
18505;SDS011;9382;53.242;10.438;2023-02-04T13:53:43;1.83;;;1.30;;
18505;SDS011;9382;53.242;10.438;2023-02-04T13:56:09;1.20;;;1.10;;
18505;SDS011;9382;53.242;10.438;2023-02-04T13:58:36;2.43;;;1.30;;
18505;SDS011;9382;53.242;10.438;2023-02-04T14:01:07;1.20;;;1.10;;
18505;SDS011;9382;53.242;10.438;2023-02-04T14:03:34;1.10;;;1.00;;
18505;SDS011;9382;53.242;10.438;2023-02-04T14:06:01;2.37;;;1.27;;
18505;SDS011;9382;53.242;10.438;2023-02-04T14:08:29;1.30;;;1.20;;
18505;SDS011;9382;53.242;10.438;2023-02-04T14:10:56;1.93;;;1.27;;
18505;SDS011;9382;53.242;10.438;2023-02-04T14:13:23;1.40;;;1.30;;
18505;SDS011;9382;53.242;10.438;2023-02-04T14:15:50;2.13;;;1.50;;
18505;SDS011;9382;53.242;10.438;2023-02-04T14:18:17;1.80;;;1.70;;
18505;SDS011;9382;53.242;10.438;2023-02-04T14:20:44;2.73;;;1.60;;
18505;SDS011;9382;53.242;10.438;2023-02-04T14:23:12;1.50;;;1.40;;
18505;SDS011;9382;53.242;10.438;2023-02-04T14:25:40;3.17;;;1.40;;
18505;SDS011;9382;53.242;10.438;2023-02-04T14:28:06;2.27;;;1.60;;
18505;SDS011;9382;53.242;10.438;2023-02-04T14:30:33;2.77;;;1.50;;
18505;SDS011;9382;53.242;10.438;2023-02-04T14:33:00;2.30;;;1.70;;
18505;SDS011;9382;53.242;10.438;2023-02-04T14:35:27;1.63;;;1.53;;
18505;SDS011;9382;53.242;10.438;2023-02-04T14:37:54;1.97;;;1.40;;
18505;SDS011;9382;53.242;10.438;2023-02-04T14:40:20;2.77;;;1.80;;
18505;SDS011;9382;53.242;10.438;2023-02-04T14:42:48;1.50;;;1.40;;
18505;SDS011;9382;53.242;10.438;2023-02-04T14:45:15;3.10;;;1.53;;
18505;SDS011;9382;53.242;10.438;2023-02-04T14:47:42;2.00;;;1.50;;
18505;SDS011;9382;53.242;10.438;2023-02-04T14:50:10;4.07;;;1.80;;